sensor_id;sensor_type;location;lat;lon;timestamp;pressure;altitude;pressure_sealevel;temperature;humidity
68329;BME280;55182;56.864;60.554;2024-01-27T00:01:24;77841.19;;;-143.60;91.78
68329;BME280;55182;56.864;60.554;2024-01-27T00:03:50;77839.19;;;-143.60;91.90
68329;BME280;55182;56.864;60.554;2024-01-27T00:06:15;77845.22;;;-143.60;91.74
68329;BME280;55182;56.864;60.554;2024-01-27T00:08:41;77845.22;;;-143.60;91.79
68329;BME280;55182;56.864;60.554;2024-01-27T00:11:06;77845.22;;;-143.60;91.70
68329;BME280;55182;56.864;60.554;2024-01-27T00:13:32;77851.25;;;-143.60;91.85
68329;BME280;55182;56.864;60.554;2024-01-27T00:15:57;77857.28;;;-143.60;91.79
68329;BME280;55182;56.864;60.554;2024-01-27T00:18:22;77861.31;;;-143.60;92.15
68329;BME280;55182;56.864;60.554;2024-01-27T00:20:48;77859.28;;;-143.60;92.03
68329;BME280;55182;56.864;60.554;2024-01-27T00:23:13;77863.31;;;-143.60;91.97
68329;BME280;55182;56.864;60.554;2024-01-27T00:25:39;77859.28;;;-143.60;92.00
68329;BME280;55182;56.864;60.554;2024-01-27T00:28:04;77863.31;;;-143.60;91.94
68329;BME280;55182;56.864;60.554;2024-01-27T00:30:30;77875.38;;;-143.60;91.72
68329;BME280;55182;56.864;60.554;2024-01-27T00:32:55;77881.41;;;-143.60;91.86
68329;BME280;55182;56.864;60.554;2024-01-27T00:35:21;77885.44;;;-143.60;91.93
68329;BME280;55182;56.864;60.554;2024-01-27T00:37:47;77887.44;;;-143.60;91.99
68329;BME280;55182;56.864;60.554;2024-01-27T00:40:13;77891.47;;;-143.60;92.05
68329;BME280;55182;56.864;60.554;2024-01-27T00:42:38;77895.47;;;-143.60;91.82
68329;BME280;55182;56.864;60.554;2024-01-27T00:45:04;77893.47;;;-143.60;92.17
68329;BME280;55182;56.864;60.554;2024-01-27T00:47:30;77897.50;;;-143.60;92.24
68329;BME280;55182;56.864;60.554;2024-01-27T00:49:56;77901.50;;;-143.60;91.92
68329;BME280;55182;56.864;60.554;2024-01-27T00:52:22;77893.47;;;-143.60;92.04
68329;BME280;55182;56.864;60.554;2024-01-27T00:54:47;77899.50;;;-143.60;92.01
68329;BME280;55182;56.864;60.554;2024-01-27T00:57:13;77899.50;;;-143.60;91.96
68329;BME280;55182;56.864;60.554;2024-01-27T00:59:39;77907.53;;;-143.60;91.74
68329;BME280;55182;56.864;60.554;2024-01-27T01:02:04;77909.56;;;-143.60;91.94
68329;BME280;55182;56.864;60.554;2024-01-27T01:04:30;77911.56;;;-143.60;91.82
68329;BME280;55182;56.864;60.554;2024-01-27T01:06:55;77907.53;;;-143.60;91.79
68329;BME280;55182;56.864;60.554;2024-01-27T01:09:21;77909.56;;;-143.60;91.68
68329;BME280;55182;56.864;60.554;2024-01-27T01:11:46;77907.53;;;-143.60;91.69
68329;BME280;55182;56.864;60.554;2024-01-27T01:14:12;77907.53;;;-143.60;91.84
68329;BME280;55182;56.864;60.554;2024-01-27T01:16:38;77905.53;;;-143.60;91.69
68329;BME280;55182;56.864;60.554;2024-01-27T01:19:03;77903.53;;;-143.60;91.81
68329;BME280;55182;56.864;60.554;2024-01-27T01:21:29;77897.50;;;-143.60;91.71
68329;BME280;55182;56.864;60.554;2024-01-27T01:23:54;77897.50;;;-143.60;91.57
68329;BME280;55182;56.864;60.554;2024-01-27T01:26:20;77889.44;;;-143.60;91.60
68329;BME280;55182;56.864;60.554;2024-01-27T01:28:46;77895.47;;;-143.60;91.30
68329;BME280;55182;56.864;60.554;2024-01-27T01:31:11;77901.50;;;-143.60;91.45
68329;BME280;55182;56.864;60.554;2024-01-27T01:33:37;77901.50;;;-143.60;91.12
68329;BME280;55182;56.864;60.554;2024-01-27T01:36:02;77895.47;;;-143.60;91.04
68329;BME280;55182;56.864;60.554;2024-01-27T01:38:28;77899.50;;;-143.60;91.06
68329;BME280;55182;56.864;60.554;2024-01-27T01:40:54;77897.50;;;-143.60;90.93
68329;BME280;55182;56.864;60.554;2024-01-27T01:43:19;77903.53;;;-143.60;90.70
68329;BME280;55182;56.864;60.554;2024-01-27T01:45:44;77905.53;;;-143.60;90.71
68329;BME280;55182;56.864;60.554;2024-01-27T01:48:10;77907.53;;;-143.60;90.92
68329;BME280;55182;56.864;60.554;2024-01-27T01:50:35;77899.50;;;-143.60;91.00
68329;BME280;55182;56.864;60.554;2024-01-27T01:53:01;77903.53;;;-143.60;91.14
68329;BME280;55182;56.864;60.554;2024-01-27T01:55:27;77895.47;;;-143.60;91.18
68329;BME280;55182;56.864;60.554;2024-01-27T01:57:52;77901.50;;;-143.60;91.07
68329;BME280;55182;56.864;60.554;2024-01-27T02:00:18;77891.47;;;-143.60;91.17
68329;BME280;55182;56.864;60.554;2024-01-27T02:02:46;77893.47;;;-143.60;91.58
68329;BME280;55182;56.864;60.554;2024-01-27T02:05:12;77895.47;;;-143.60;91.52
68329;BME280;55182;56.864;60.554;2024-01-27T02:07:37;77891.47;;;-143.60;91.74
68329;BME280;55182;56.864;60.554;2024-01-27T02:10:03;77883.41;;;-143.60;92.04
68329;BME280;55182;56.864;60.554;2024-01-27T02:12:29;77877.38;;;-143.60;92.16
68329;BME280;55182;56.864;60.554;2024-01-27T02:14:54;77855.28;;;-143.60;92.27
68329;BME280;55182;56.864;60.554;2024-01-27T02:17:20;77843.22;;;-143.60;92.41
68329;BME280;55182;56.864;60.554;2024-01-27T02:19:45;77833.16;;;-143.60;92.64
68329;BME280;55182;56.864;60.554;2024-01-27T02:22:11;77819.09;;;-143.60;92.66
68329;BME280;55182;56.864;60.554;2024-01-27T02:24:36;77813.06;;;-143.60;92.63
68329;BME280;55182;56.864;60.554;2024-01-27T02:27:02;77803.00;;;-143.60;92.73
68329;BME280;55182;56.864;60.554;2024-01-27T02:29:27;77803.00;;;-143.60;92.88
68329;BME280;55182;56.864;60.554;2024-01-27T02:31:53;77794.97;;;-143.60;92.58
68329;BME280;55182;56.864;60.554;2024-01-27T02:34:19;77782.91;;;-143.60;92.55
68329;BME280;55182;56.864;60.554;2024-01-27T02:36:44;77776.88;;;-143.60;92.55
68329;BME280;55182;56.864;60.554;2024-01-27T02:39:10;77770.84;;;-143.60;92.69
68329;BME280;55182;56.864;60.554;2024-01-27T02:41:35;77766.81;;;-143.60;92.62
68329;BME280;55182;56.864;60.554;2024-01-27T02:44:01;77762.78;;;-143.60;92.49
68329;BME280;55182;56.864;60.554;2024-01-27T02:46:26;77754.75;;;-143.60;92.70
68329;BME280;55182;56.864;60.554;2024-01-27T02:48:52;77754.75;;;-143.60;92.75
68329;BME280;55182;56.864;60.554;2024-01-27T02:51:20;77750.72;;;-143.60;92.67
68329;BME280;55182;56.864;60.554;2024-01-27T02:53:45;77748.72;;;-143.60;92.71
68329;BME280;55182;56.864;60.554;2024-01-27T02:56:11;77746.72;;;-143.60;92.85
68329;BME280;55182;56.864;60.554;2024-01-27T02:58:36;77738.69;;;-143.60;92.77
68329;BME280;55182;56.864;60.554;2024-01-27T03:01:02;77730.63;;;-143.60;93.01
68329;BME280;55182;56.864;60.554;2024-01-27T03:03:27;77726.59;;;-143.60;93.05
68329;BME280;55182;56.864;60.554;2024-01-27T03:05:53;77718.56;;;-143.60;92.95
68329;BME280;55182;56.864;60.554;2024-01-27T03:08:18;77710.53;;;-143.60;93.12
68329;BME280;55182;56.864;60.554;2024-01-27T03:10:44;77708.53;;;-143.60;93.12
68329;BME280;55182;56.864;60.554;2024-01-27T03:13:09;77696.47;;;-143.60;93.12
68329;BME280;55182;56.864;60.554;2024-01-27T03:15:35;77690.44;;;-143.60;93.22
68329;BME280;55182;56.864;60.554;2024-01-27T03:18:00;77686.41;;;-143.60;93.15
68329;BME280;55182;56.864;60.554;2024-01-27T03:20:26;77686.41;;;-143.60;93.12
68329;BME280;55182;56.864;60.554;2024-01-27T03:22:51;77686.41;;;-143.60;93.14
68329;BME280;55182;56.864;60.554;2024-01-27T03:25:17;77682.38;;;-143.60;93.09
68329;BME280;55182;56.864;60.554;2024-01-27T03:27:43;77680.38;;;-143.60;93.12
68329;BME280;55182;56.864;60.554;2024-01-27T03:30:08;77670.31;;;-143.60;93.09
68329;BME280;55182;56.864;60.554;2024-01-27T03:32:34;77666.31;;;-143.60;93.23
68329;BME280;55182;56.864;60.554;2024-01-27T03:34:59;77660.28;;;-143.60;93.07
68329;BME280;55182;56.864;60.554;2024-01-27T03:37:25;77654.25;;;-143.60;92.95
68329;BME280;55182;56.864;60.554;2024-01-27T03:39:50;77644.19;;;-143.60;93.10
68329;BME280;55182;56.864;60.554;2024-01-27T03:42:16;77646.19;;;-143.60;92.98
68329;BME280;55182;56.864;60.554;2024-01-27T03:44:41;77642.19;;;-143.60;92.89
68329;BME280;55182;56.864;60.554;2024-01-27T03:47:07;77636.16;;;-143.60;92.96
68329;BME280;55182;56.864;60.554;2024-01-27T03:49:32;77636.16;;;-143.60;92.80
68329;BME280;55182;56.864;60.554;2024-01-27T03:51:57;77622.06;;;-143.60;93.01
68329;BME280;55182;56.864;60.554;2024-01-27T03:54:23;77620.06;;;-143.60;92.87
68329;BME280;55182;56.864;60.554;2024-01-27T03:56:48;77618.06;;;-143.60;92.84
68329;BME280;55182;56.864;60.554;2024-01-27T03:59:14;77618.06;;;-143.60;92.71
68329;BME280;55182;56.864;60.554;2024-01-27T04:01:39;77620.06;;;-143.60;92.71
68329;BME280;55182;56.864;60.554;2024-01-27T04:04:05;77618.06;;;-143.60;92.82
68329;BME280;55182;56.864;60.554;2024-01-27T04:06:35;77614.03;;;-143.60;92.55
68329;BME280;55182;56.864;60.554;2024-01-27T04:09:01;77608.00;;;-143.60;92.72
68329;BME280;55182;56.864;60.554;2024-01-27T04:11:26;77616.06;;;-143.60;92.81
68329;BME280;55182;56.864;60.554;2024-01-27T04:13:51;77606.00;;;-143.60;92.85
68329;BME280;55182;56.864;60.554;2024-01-27T04:16:17;77606.00;;;-143.60;92.94
68329;BME280;55182;56.864;60.554;2024-01-27T04:18:42;77606.00;;;-143.60;92.79
68329;BME280;55182;56.864;60.554;2024-01-27T04:21:08;77616.06;;;-143.60;92.91
68329;BME280;55182;56.864;60.554;2024-01-27T04:23:33;77622.06;;;-143.60;93.11
68329;BME280;55182;56.864;60.554;2024-01-27T04:25:59;77626.09;;;-143.60;93.12
68329;BME280;55182;56.864;60.554;2024-01-27T04:28:25;77632.13;;;-143.60;93.16
68329;BME280;55182;56.864;60.554;2024-01-27T04:30:50;77640.16;;;-143.60;93.38
68329;BME280;55182;56.864;60.554;2024-01-27T04:33:16;77646.19;;;-143.60;93.48
68329;BME280;55182;56.864;60.554;2024-01-27T04:35:41;77644.19;;;-143.60;93.68
68329;BME280;55182;56.864;60.554;2024-01-27T04:38:10;77648.22;;;-143.60;93.62
68329;BME280;55182;56.864;60.554;2024-01-27T04:40:35;77638.16;;;-143.60;93.78
68329;BME280;55182;56.864;60.554;2024-01-27T04:43:01;77636.16;;;-143.60;93.67
68329;BME280;55182;56.864;60.554;2024-01-27T04:45:26;77630.13;;;-143.60;93.70
68329;BME280;55182;56.864;60.554;2024-01-27T04:47:52;77628.09;;;-143.60;93.59
68329;BME280;55182;56.864;60.554;2024-01-27T04:50:18;77618.06;;;-143.60;93.49
68329;BME280;55182;56.864;60.554;2024-01-27T04:52:43;77620.06;;;-143.60;93.42
68329;BME280;55182;56.864;60.554;2024-01-27T04:55:09;77614.03;;;-143.60;93.33
68329;BME280;55182;56.864;60.554;2024-01-27T04:57:34;77614.03;;;-143.60;93.13
68329;BME280;55182;56.864;60.554;2024-01-27T04:59:59;77593.94;;;-143.60;93.04
68329;BME280;55182;56.864;60.554;2024-01-27T05:02:25;77593.94;;;-143.60;92.73
68329;BME280;55182;56.864;60.554;2024-01-27T05:04:50;77599.97;;;-143.60;92.56
68329;BME280;55182;56.864;60.554;2024-01-27T05:07:16;77608.00;;;-143.60;92.41
68329;BME280;55182;56.864;60.554;2024-01-27T05:09:41;77622.06;;;-143.60;92.25
68329;BME280;55182;56.864;60.554;2024-01-27T05:12:07;77634.13;;;-143.60;92.63
68329;BME280;55182;56.864;60.554;2024-01-27T05:14:32;77634.13;;;-143.60;92.78
68329;BME280;55182;56.864;60.554;2024-01-27T05:16:58;77646.19;;;-143.60;92.81
68329;BME280;55182;56.864;60.554;2024-01-27T05:19:23;77654.25;;;-143.60;93.00
68329;BME280;55182;56.864;60.554;2024-01-27T05:21:49;77654.25;;;-143.60;92.88
68329;BME280;55182;56.864;60.554;2024-01-27T05:24:14;77650.22;;;-143.60;92.78
68329;BME280;55182;56.864;60.554;2024-01-27T05:26:40;77650.22;;;-143.60;92.88
68329;BME280;55182;56.864;60.554;2024-01-27T05:29:05;77654.25;;;-143.60;92.58
68329;BME280;55182;56.864;60.554;2024-01-27T05:31:31;77658.25;;;-143.60;92.83
68329;BME280;55182;56.864;60.554;2024-01-27T05:33:56;77658.25;;;-143.60;92.80
68329;BME280;55182;56.864;60.554;2024-01-27T05:36:22;77666.31;;;-143.60;92.68
68329;BME280;55182;56.864;60.554;2024-01-27T05:38:47;77668.31;;;-143.60;92.74
68329;BME280;55182;56.864;60.554;2024-01-27T05:41:13;77662.28;;;-143.60;92.88
68329;BME280;55182;56.864;60.554;2024-01-27T05:43:39;77670.31;;;-143.60;92.81
68329;BME280;55182;56.864;60.554;2024-01-27T05:46:04;77668.31;;;-143.60;92.86
68329;BME280;55182;56.864;60.554;2024-01-27T05:48:30;77664.28;;;-143.60;92.73
68329;BME280;55182;56.864;60.554;2024-01-27T05:50:56;77666.31;;;-143.60;92.65
68329;BME280;55182;56.864;60.554;2024-01-27T05:53:21;77666.31;;;-143.60;92.42
68329;BME280;55182;56.864;60.554;2024-01-27T05:55:47;77670.31;;;-143.60;92.48
68329;BME280;55182;56.864;60.554;2024-01-27T05:58:12;77662.28;;;-143.60;92.34
68329;BME280;55182;56.864;60.554;2024-01-27T06:00:38;77666.31;;;-143.60;92.02
68329;BME280;55182;56.864;60.554;2024-01-27T06:03:03;77662.28;;;-143.60;91.99
68329;BME280;55182;56.864;60.554;2024-01-27T06:05:29;77658.25;;;-143.60;91.87
68329;BME280;55182;56.864;60.554;2024-01-27T06:07:54;77654.25;;;-143.60;91.63
68329;BME280;55182;56.864;60.554;2024-01-27T06:10:20;77642.19;;;-143.60;91.33
68329;BME280;55182;56.864;60.554;2024-01-27T06:12:45;77642.19;;;-143.60;91.04
68329;BME280;55182;56.864;60.554;2024-01-27T06:15:11;77634.13;;;-143.60;90.75
68329;BME280;55182;56.864;60.554;2024-01-27T06:17:36;77630.13;;;-143.60;90.59
68329;BME280;55182;56.864;60.554;2024-01-27T06:20:01;77628.09;;;-143.60;90.15
68329;BME280;55182;56.864;60.554;2024-01-27T06:22:27;77618.06;;;-143.60;89.87
68329;BME280;55182;56.864;60.554;2024-01-27T06:24:53;77620.06;;;-143.60;89.63
68329;BME280;55182;56.864;60.554;2024-01-27T06:27:18;77614.03;;;-143.60;89.20
68329;BME280;55182;56.864;60.554;2024-01-27T06:29:43;77608.00;;;-143.60;88.73
68329;BME280;55182;56.864;60.554;2024-01-27T06:32:09;77597.97;;;-143.60;87.96
68329;BME280;55182;56.864;60.554;2024-01-27T06:34:34;77587.91;;;-143.60;87.42
68329;BME280;55182;56.864;60.554;2024-01-27T06:37:00;77585.91;;;-143.60;87.10
68329;BME280;55182;56.864;60.554;2024-01-27T06:39:25;77585.91;;;-143.60;86.70
68329;BME280;55182;56.864;60.554;2024-01-27T06:41:51;77577.84;;;-143.60;86.37
68329;BME280;55182;56.864;60.554;2024-01-27T06:44:16;77577.84;;;-143.60;86.04
68329;BME280;55182;56.864;60.554;2024-01-27T06:46:42;77571.81;;;-143.60;85.39
68329;BME280;55182;56.864;60.554;2024-01-27T06:49:07;77565.78;;;-143.60;85.13
68329;BME280;55182;56.864;60.554;2024-01-27T06:51:33;77561.78;;;-143.60;84.98
68329;BME280;55182;56.864;60.554;2024-01-27T06:53:59;77557.75;;;-143.60;84.80
68329;BME280;55182;56.864;60.554;2024-01-27T06:56:24;77557.75;;;-143.60;84.44
68329;BME280;55182;56.864;60.554;2024-01-27T06:58:50;77549.72;;;-143.60;84.20
68329;BME280;55182;56.864;60.554;2024-01-27T07:01:15;77539.66;;;-143.60;83.90
68329;BME280;55182;56.864;60.554;2024-01-27T07:03:41;77541.66;;;-143.60;83.69
68329;BME280;55182;56.864;60.554;2024-01-27T07:06:06;77537.66;;;-143.60;83.64
68329;BME280;55182;56.864;60.554;2024-01-27T07:08:31;77527.59;;;-143.60;83.30
68329;BME280;55182;56.864;60.554;2024-01-27T07:10:57;77533.63;;;-143.60;83.06
68329;BME280;55182;56.864;60.554;2024-01-27T07:13:22;77533.63;;;-143.60;82.94
68329;BME280;55182;56.864;60.554;2024-01-27T07:15:48;77533.63;;;-143.60;82.81
68329;BME280;55182;56.864;60.554;2024-01-27T07:18:13;77535.63;;;-143.60;82.65
68329;BME280;55182;56.864;60.554;2024-01-27T07:20:39;77529.59;;;-143.60;82.75
68329;BME280;55182;56.864;60.554;2024-01-27T07:23:04;77525.59;;;-143.60;82.79
68329;BME280;55182;56.864;60.554;2024-01-27T07:25:30;77523.56;;;-143.60;82.84
68329;BME280;55182;56.864;60.554;2024-01-27T07:27:55;77525.59;;;-143.60;82.73
68329;BME280;55182;56.864;60.554;2024-01-27T07:30:21;77521.56;;;-143.60;82.79
68329;BME280;55182;56.864;60.554;2024-01-27T07:32:46;77509.50;;;-143.60;82.42
68329;BME280;55182;56.864;60.554;2024-01-27T07:35:12;77501.47;;;-143.60;82.55
68329;BME280;55182;56.864;60.554;2024-01-27T07:37:37;77501.47;;;-143.60;82.53
68329;BME280;55182;56.864;60.554;2024-01-27T07:40:03;77499.47;;;-143.60;82.54
68329;BME280;55182;56.864;60.554;2024-01-27T07:42:28;77501.47;;;-143.60;82.69
68329;BME280;55182;56.864;60.554;2024-01-27T07:44:54;77485.38;;;-143.60;83.07
68329;BME280;55182;56.864;60.554;2024-01-27T07:47:19;77485.38;;;-143.60;83.38
68329;BME280;55182;56.864;60.554;2024-01-27T07:49:44;77481.38;;;-143.60;83.38
68329;BME280;55182;56.864;60.554;2024-01-27T07:52:10;77483.38;;;-143.60;83.50
68329;BME280;55182;56.864;60.554;2024-01-27T07:54:35;77487.41;;;-143.60;84.20
68329;BME280;55182;56.864;60.554;2024-01-27T07:57:01;77483.38;;;-143.60;84.44
68329;BME280;55182;56.864;60.554;2024-01-27T07:59:26;77493.44;;;-143.60;84.47
68329;BME280;55182;56.864;60.554;2024-01-27T08:01:52;77485.38;;;-143.60;85.05
68329;BME280;55182;56.864;60.554;2024-01-27T08:04:17;77497.44;;;-143.60;85.34
68329;BME280;55182;56.864;60.554;2024-01-27T08:06:46;77489.41;;;-143.60;85.80
68329;BME280;55182;56.864;60.554;2024-01-27T08:09:12;77491.41;;;-143.60;86.21
68329;BME280;55182;56.864;60.554;2024-01-27T08:11:37;77481.38;;;-143.60;86.33
68329;BME280;55182;56.864;60.554;2024-01-27T08:14:03;77489.41;;;-143.60;86.61
68329;BME280;55182;56.864;60.554;2024-01-27T08:16:28;77497.44;;;-143.60;86.66
68329;BME280;55182;56.864;60.554;2024-01-27T08:18:54;77491.41;;;-143.60;86.84
68329;BME280;55182;56.864;60.554;2024-01-27T08:21:19;77477.34;;;-143.60;86.87
68329;BME280;55182;56.864;60.554;2024-01-27T08:23:45;77469.31;;;-143.60;87.01
68329;BME280;55182;56.864;60.554;2024-01-27T08:26:10;77469.31;;;-143.60;86.84
68329;BME280;55182;56.864;60.554;2024-01-27T08:28:36;77461.25;;;-143.60;86.72
68329;BME280;55182;56.864;60.554;2024-01-27T08:31:01;77457.25;;;-143.60;86.98
68329;BME280;55182;56.864;60.554;2024-01-27T08:33:27;77449.19;;;-143.60;86.95
68329;BME280;55182;56.864;60.554;2024-01-27T08:35:52;77445.19;;;-143.60;86.83
68329;BME280;55182;56.864;60.554;2024-01-27T08:38:18;77443.16;;;-143.60;86.86
68329;BME280;55182;56.864;60.554;2024-01-27T08:40:43;77437.13;;;-143.60;86.86
68329;BME280;55182;56.864;60.554;2024-01-27T08:43:08;77433.13;;;-143.60;86.88
68329;BME280;55182;56.864;60.554;2024-01-27T08:45:34;77427.09;;;-143.60;87.07
68329;BME280;55182;56.864;60.554;2024-01-27T08:48:00;77427.09;;;-143.60;86.73
68329;BME280;55182;56.864;60.554;2024-01-27T08:50:25;77427.09;;;-143.60;86.72
68329;BME280;55182;56.864;60.554;2024-01-27T08:52:51;77419.06;;;-143.60;86.78
68329;BME280;55182;56.864;60.554;2024-01-27T08:55:16;77427.09;;;-143.60;87.33
68329;BME280;55182;56.864;60.554;2024-01-27T08:57:42;77417.03;;;-143.60;87.17
68329;BME280;55182;56.864;60.554;2024-01-27T09:00:07;77423.06;;;-143.60;87.08
68329;BME280;55182;56.864;60.554;2024-01-27T09:02:33;77413.03;;;-143.60;87.22
68329;BME280;55182;56.864;60.554;2024-01-27T09:04:58;77409.00;;;-143.60;86.93
68329;BME280;55182;56.864;60.554;2024-01-27T09:07:24;77409.00;;;-143.60;86.91
68329;BME280;55182;56.864;60.554;2024-01-27T09:09:49;77404.97;;;-143.60;86.75
68329;BME280;55182;56.864;60.554;2024-01-27T09:12:15;77396.94;;;-143.60;86.64
68329;BME280;55182;56.864;60.554;2024-01-27T09:14:40;77388.91;;;-143.60;86.55
68329;BME280;55182;56.864;60.554;2024-01-27T09:17:06;77382.88;;;-143.60;86.52
68329;BME280;55182;56.864;60.554;2024-01-27T09:19:31;77378.84;;;-143.60;86.92
68329;BME280;55182;56.864;60.554;2024-01-27T09:21:57;77374.81;;;-143.60;86.21
68329;BME280;55182;56.864;60.554;2024-01-27T09:24:22;77368.78;;;-143.60;86.09
68329;BME280;55182;56.864;60.554;2024-01-27T09:26:47;77366.78;;;-143.60;85.94
68329;BME280;55182;56.864;60.554;2024-01-27T09:29:13;77364.78;;;-143.60;85.87
68329;BME280;55182;56.864;60.554;2024-01-27T09:31:38;77348.69;;;-143.60;85.53
68329;BME280;55182;56.864;60.554;2024-01-27T09:34:04;77344.69;;;-143.60;85.33
68329;BME280;55182;56.864;60.554;2024-01-27T09:36:29;77340.66;;;-143.60;85.00
68329;BME280;55182;56.864;60.554;2024-01-27T09:38:55;77344.69;;;-143.60;85.23
68329;BME280;55182;56.864;60.554;2024-01-27T09:41:20;77336.63;;;-143.60;85.26
68329;BME280;55182;56.864;60.554;2024-01-27T09:43:46;77332.63;;;-143.60;84.92
68329;BME280;55182;56.864;60.554;2024-01-27T09:46:12;77330.59;;;-143.60;84.68
68329;BME280;55182;56.864;60.554;2024-01-27T09:48:37;77328.59;;;-143.60;84.62
68329;BME280;55182;56.864;60.554;2024-01-27T09:51:03;77324.56;;;-143.60;84.89
68329;BME280;55182;56.864;60.554;2024-01-27T09:53:29;77328.59;;;-143.60;84.83
68329;BME280;55182;56.864;60.554;2024-01-27T09:55:58;77318.53;;;-143.60;84.62
68329;BME280;55182;56.864;60.554;2024-01-27T09:58:28;77316.53;;;-143.60;84.41
68329;BME280;55182;56.864;60.554;2024-01-27T10:00:58;77308.50;;;-143.60;84.31
68329;BME280;55182;56.864;60.554;2024-01-27T10:03:24;77304.47;;;-143.60;84.31
68329;BME280;55182;56.864;60.554;2024-01-27T10:05:50;77298.44;;;-143.60;84.00
68329;BME280;55182;56.864;60.554;2024-01-27T10:08:17;77290.41;;;-143.60;83.74
68329;BME280;55182;56.864;60.554;2024-01-27T10:10:42;77286.38;;;-143.60;83.71
68329;BME280;55182;56.864;60.554;2024-01-27T10:13:08;77276.34;;;-143.60;83.63
68329;BME280;55182;56.864;60.554;2024-01-27T10:15:35;77268.28;;;-143.60;83.23
68329;BME280;55182;56.864;60.554;2024-01-27T10:18:04;77254.22;;;-143.60;82.72
68329;BME280;55182;56.864;60.554;2024-01-27T10:20:31;77246.19;;;-143.60;82.45
68329;BME280;55182;56.864;60.554;2024-01-27T10:22:57;77230.09;;;-143.60;82.14
68329;BME280;55182;56.864;60.554;2024-01-27T10:25:22;77224.06;;;-143.60;81.82
68329;BME280;55182;56.864;60.554;2024-01-27T10:27:48;77214.03;;;-143.60;81.00
68329;BME280;55182;56.864;60.554;2024-01-27T10:30:17;77201.97;;;-143.60;80.66
68329;BME280;55182;56.864;60.554;2024-01-27T10:32:54;77193.94;;;-143.60;80.38
68329;BME280;55182;56.864;60.554;2024-01-27T10:35:24;77183.88;;;-143.60;79.79
68329;BME280;55182;56.864;60.554;2024-01-27T10:44:33;77165.78;;;-143.60;78.75
68329;BME280;55182;56.864;60.554;2024-01-27T10:47:02;77161.75;;;-143.60;78.80
68329;BME280;55182;56.864;60.554;2024-01-27T10:49:28;77159.75;;;-143.60;78.65
68329;BME280;55182;56.864;60.554;2024-01-27T10:51:57;77159.75;;;-143.60;78.74
68329;BME280;55182;56.864;60.554;2024-01-27T10:54:27;77157.75;;;-143.60;79.06
68329;BME280;55182;56.864;60.554;2024-01-27T10:56:53;77161.75;;;-143.60;78.68
68329;BME280;55182;56.864;60.554;2024-01-27T10:59:20;77167.78;;;-143.60;78.81
68329;BME280;55182;56.864;60.554;2024-01-27T11:01:46;77169.81;;;-143.60;78.78
68329;BME280;55182;56.864;60.554;2024-01-27T11:04:12;77177.84;;;-143.60;78.88
68329;BME280;55182;56.864;60.554;2024-01-27T11:06:38;77175.84;;;-143.60;79.40
68329;BME280;55182;56.864;60.554;2024-01-27T11:09:04;77179.84;;;-143.60;79.32
68329;BME280;55182;56.864;60.554;2024-01-27T11:11:29;77183.88;;;-143.60;79.63
68329;BME280;55182;56.864;60.554;2024-01-27T11:13:55;77177.84;;;-143.60;79.75
68329;BME280;55182;56.864;60.554;2024-01-27T11:16:24;77183.88;;;-143.60;79.87
68329;BME280;55182;56.864;60.554;2024-01-27T11:18:50;77171.81;;;-143.60;80.12
68329;BME280;55182;56.864;60.554;2024-01-27T11:21:16;77179.84;;;-143.60;79.94
68329;BME280;55182;56.864;60.554;2024-01-27T11:23:42;77181.88;;;-143.60;79.70
68329;BME280;55182;56.864;60.554;2024-01-27T11:26:08;77187.91;;;-143.60;80.05
68329;BME280;55182;56.864;60.554;2024-01-27T11:28:34;77183.88;;;-143.60;80.47
68329;BME280;55182;56.864;60.554;2024-01-27T11:31:05;77187.91;;;-143.60;80.51
68329;BME280;55182;56.864;60.554;2024-01-27T11:33:31;77191.91;;;-143.60;80.65
68329;BME280;55182;56.864;60.554;2024-01-27T11:41:52;77205.97;;;-143.60;81.03
68329;BME280;55182;56.864;60.554;2024-01-27T11:44:30;77203.97;;;-143.60;80.84
68329;BME280;55182;56.864;60.554;2024-01-27T11:47:01;77214.03;;;-143.60;80.95
68329;BME280;55182;56.864;60.554;2024-01-27T11:49:39;77220.06;;;-143.60;81.23
68329;BME280;55182;56.864;60.554;2024-01-27T11:52:48;77224.06;;;-143.60;81.45
68329;BME280;55182;56.864;60.554;2024-01-27T11:55:35;77226.09;;;-143.60;81.66
68329;BME280;55182;56.864;60.554;2024-01-27T11:58:12;77228.09;;;-143.60;81.53
68329;BME280;55182;56.864;60.554;2024-01-27T12:01:01;77236.13;;;-143.60;81.74
68329;BME280;55182;56.864;60.554;2024-01-27T12:03:46;77240.16;;;-143.60;81.88
68329;BME280;55182;56.864;60.554;2024-01-27T12:06:42;77240.16;;;-143.60;81.82
68329;BME280;55182;56.864;60.554;2024-01-27T12:09:32;77250.19;;;-143.60;81.80
68329;BME280;55182;56.864;60.554;2024-01-27T12:12:15;77250.19;;;-143.60;81.69
68329;BME280;55182;56.864;60.554;2024-01-27T12:14:50;77252.22;;;-143.60;81.80
68329;BME280;55182;56.864;60.554;2024-01-27T12:17:22;77252.22;;;-143.60;82.16
68329;BME280;55182;56.864;60.554;2024-01-27T12:19:58;77252.22;;;-143.60;82.22
68329;BME280;55182;56.864;60.554;2024-01-27T12:23:01;77256.22;;;-143.60;82.24
68329;BME280;55182;56.864;60.554;2024-01-27T12:25:39;77256.22;;;-143.60;81.94
68329;BME280;55182;56.864;60.554;2024-01-27T12:28:16;77256.22;;;-143.60;82.11
68329;BME280;55182;56.864;60.554;2024-01-27T12:30:53;77262.25;;;-143.60;82.24
68329;BME280;55182;56.864;60.554;2024-01-27T12:33:21;77268.28;;;-143.60;82.48
68329;BME280;55182;56.864;60.554;2024-01-27T12:35:47;77272.31;;;-143.60;82.46
68329;BME280;55182;56.864;60.554;2024-01-27T12:38:12;77276.34;;;-143.60;82.48
68329;BME280;55182;56.864;60.554;2024-01-27T12:40:38;77284.38;;;-143.60;82.82